Time;durP1;ratioP1;P1;durP2;ratioP2;P2;SDS_P1;SDS_P2;PMS_P1;PMS_P2;Temp;Humidity;BMP_temperature;BMP_pressure;BME280_temperature;BME280_humidity;BME280_pressure;Samples;Min_cycle;Max_cycle;Signal;HPM_P1;HPM_P2
2022/09/15 00:00:23;;;;;;;21.50;12.90;;;;;;;15.37;99.87;98888.24;657599;1280;139960;-82
2022/09/15 00:15:47;;;;;;;25.30;13.20;;;;;;;15.22;100.00;98890.64;657189;1279;141916;-82
2022/09/15 00:30:52;;;;;;;21.80;12.30;;;;;;;15.01;100.00;98896.72;656996;1278;139550;-82
2022/09/15 00:45:55;;;;;;;20.90;10.70;;;;;;;15.01;100.00;98890.79;656334;1280;139526;-82
2022/09/15 01:01:01;;;;;;;17.40;9.80;;;;;;;15.01;100.00;98887.91;657426;1278;139858;-82
2022/09/15 01:16:25;;;;;;;15.90;8.30;;;;;;;14.96;100.00;98890.27;657562;1278;139521;-82
2022/09/15 01:33:02;;;;;;;19.70;9.50;;;;;;;14.96;100.00;98869.73;657892;1277;139786;-82
2022/09/15 01:47:06;;;;;;;21.30;9.70;;;;;;;14.99;100.00;98855.13;656234;1277;139159;-82
2022/09/15 02:02:24;;;;;;;22.10;9.20;;;;;;;15.07;100.00;98850.34;657193;1277;141561;-82
2022/09/15 02:17:31;;;;;;;16.60;9.40;;;;;;;14.94;100.00;98850.78;657703;1277;139228;-83
2022/09/15 02:32:37;;;;;;;20.10;9.80;;;;;;;14.80;100.00;98844.85;657676;1278;139401;-81
2022/09/15 02:47:40;;;;;;;27.00;10.60;;;;;;;14.76;100.00;98844.14;657346;1278;139642;-82
2022/09/15 03:02:49;;;;;;;39.20;12.90;;;;;;;14.69;100.00;98834.59;657284;1280;140183;-82
2022/09/15 03:17:53;;;;;;;32.50;12.00;;;;;;;14.70;100.00;98828.02;657052;1279;140198;-82
2022/09/15 03:32:56;;;;;;;26.20;10.20;;;;;;;14.64;100.00;98830.86;657465;1279;140848;-82
2022/09/15 03:47:59;;;;;;;19.30;9.40;;;;;;;14.60;100.00;98831.03;656345;1280;140117;-81
2022/09/15 04:03:03;;;;;;;17.20;7.30;;;;;;;14.52;100.00;98825.39;656664;1279;140190;-81
2022/09/15 04:18:07;;;;;;;22.70;7.90;;;;;;;14.17;100.00;98820.61;657317;1278;141526;-82
2022/09/15 04:33:10;;;;;;;24.60;8.70;;;;;;;13.85;100.00;98819.65;655813;1281;1407397;-81
2022/09/15 04:48:13;;;;;;;16.70;8.20;;;;;;;13.63;100.00;98820.55;657410;1280;140083;-84
2022/09/15 05:03:17;;;;;;;17.10;6.90;;;;;;;13.69;100.00;98809.56;657501;1280;139624;-81
2022/09/15 05:18:21;;;;;;;23.90;11.50;;;;;;;13.84;100.00;98811.49;658190;1280;139234;-81
2022/09/15 05:33:24;;;;;;;14.30;6.30;;;;;;;13.94;100.00;98804.96;657961;1278;139381;-83
2022/09/15 05:48:27;;;;;;;11.20;5.60;;;;;;;14.23;100.00;98803.09;658782;1277;139903;-83
2022/09/15 06:03:30;;;;;;;14.30;5.90;;;;;;;14.72;100.00;98805.23;659868;1277;140377;-81
2022/09/15 06:18:36;;;;;;;13.70;6.70;;;;;;;15.18;100.00;98795.46;658916;1278;140116;-82
2022/09/15 06:33:42;;;;;;;11.10;5.60;;;;;;;15.63;100.00;98791.73;658939;1277;140895;-81
2022/09/15 06:48:46;;;;;;;14.70;5.20;;;;;;;16.55;100.00;98787.78;660080;1277;140639;-82
2022/09/15 07:03:51;;;;;;;6.10;4.00;;;;;;;17.54;100.00;98787.53;658688;1278;139428;-82
2022/09/15 07:18:56;;;;;;;11.40;3.70;;;;;;;18.15;94.56;98795.69;658575;1280;139280;-83
2022/09/15 07:34:01;;;;;;;9.80;3.10;;;;;;;18.62;90.52;98791.64;659876;1280;139895;-84
2022/09/15 07:49:05;;;;;;;5.20;2.00;;;;;;;19.25;85.20;98791.13;661534;1278;138758;-83
2022/09/15 08:04:08;;;;;;;4.90;2.10;;;;;;;19.54;81.92;98795.59;661203;1277;138747;-82
2022/09/15 08:19:12;;;;;;;3.00;1.80;;;;;;;19.64;78.66;98787.89;659383;1277;138752;-82
2022/09/15 08:34:16;;;;;;;6.30;2.10;;;;;;;19.84;77.07;98788.58;658921;1278;138968;-82
2022/09/15 08:49:33;;;;;;;9.90;2.00;;;;;;;20.55;76.24;98785.70;658674;1279;139936;-81
2022/09/15 09:05:08;;;;;;;3.30;1.50;;;;;;;21.14;71.99;98788.61;658216;1277;138566;-82
2022/09/15 09:20:30;;;;;;;3.10;1.90;;;;;;;21.51;68.68;98789.77;660065;1277;138675;-82
2022/09/15 09:35:48;;;;;;;4.30;1.40;;;;;;;20.99;67.49;98780.67;658831;1277;138598;-83
2022/09/15 09:50:53;;;;;;;4.80;3.10;;;;;;;20.12;66.89;98790.02;658436;1277;143541;-83
2022/09/15 10:06:10;;;;;;;5.60;2.30;;;;;;;19.44;69.57;98788.98;655628;1278;139093;-82
2022/09/15 10:21:14;;;;;;;8.00;3.80;;;;;;;19.21;72.05;98794.87;658030;1277;138300;-82
2022/09/15 10:36:38;;;;;;;2.90;1.60;;;;;;;19.51;72.35;98790.02;657662;1277;138725;-83
2022/09/15 10:52:11;;;;;;;5.30;1.80;;;;;;;19.47;71.81;98783.58;658348;1277;140008;-82
2022/09/15 11:07:36;;;;;;;5.50;2.70;;;;;;;19.79;72.62;98790.00;660662;1277;139089;-82
2022/09/15 11:22:50;;;;;;;5.10;2.70;;;;;;;19.47;73.28;98783.69;658252;1279;140099;-82
2022/09/15 11:44:08;;;;;;;10.80;3.40;;;;;;;19.10;77.75;98789.85;639494;1309;2010495;-84
2022/09/15 11:59:34;;;;;;;8.30;3.50;;;;;;;19.55;77.01;98773.38;654200;1287;138667;-83
2022/09/15 12:14:40;;;;;;;;;;;;;;;20.27;72.38;98775.06;654638;1287;139288;-85
2022/09/15 12:29:49;;;;;;;3.90;2.10;;;;;;;20.53;70.06;98772.15;655508;1287;125365;-85
2022/09/15 12:44:54;;;;;;;;;;;;;;;21.70;66.84;98766.45;659296;1280;138484;-83
2022/09/15 13:00:22;;;;;;;4.40;1.60;;;;;;;20.97;66.75;98770.79;659546;1280;124146;-83
2022/09/15 13:15:26;;;;;;;7.60;2.00;;;;;;;21.00;63.69;98765.56;660471;1280;138462;-84
2022/09/15 13:30:52;;;;;;;4.10;2.30;;;;;;;20.93;62.47;98760.02;659738;1278;138496;-83
2022/09/15 13:46:32;;;;;;;4.60;2.80;;;;;;;21.30;61.65;98754.15;658684;1280;138023;-85
2022/09/15 14:01:41;;;;;;;2.80;1.10;;;;;;;21.50;61.98;98736.75;660051;1280;139832;-85
2022/09/15 14:16:48;;;;;;;4.50;1.80;;;;;;;27.15;51.63;98730.01;661424;1277;139626;-85
2022/09/15 14:31:58;;;;;;;2.10;1.30;;;;;;;25.97;49.12;98726.02;662524;1277;139442;-86
2022/09/15 14:47:19;;;;;;;4.80;2.40;;;;;;;22.41;54.60;98714.91;659074;1277;138608;-84
2022/09/15 15:02:33;;;;;;;4.50;2.20;;;;;;;21.53;57.47;98710.23;658058;1277;137889;-85
2022/09/15 15:17:44;;;;;;;6.90;3.40;;;;;;;20.31;60.82;98741.20;658229;1278;138780;-84
2022/09/15 15:32:48;;;;;;;18.00;7.10;;;;;;;19.22;65.79;98746.75;658151;1276;138981;-84
2022/09/15 15:47:52;;;;;;;49.70;26.30;;;;;;;18.81;68.05;98758.52;660630;1276;138149;-84
2022/09/15 16:02:55;;;;;;;181.90;92.10;;;;;;;18.43;69.32;98762.36;659864;1277;139786;-83
2022/09/15 16:17:59;;;;;;;23.10;14.90;;;;;;;17.97;69.93;98762.23;661766;1277;138970;-85
2022/09/15 16:33:04;;;;;;;25.60;15.50;;;;;;;17.59;70.80;98768.25;660763;1277;138720;-84
2022/09/15 16:48:09;;;;;;;18.90;13.20;;;;;;;17.35;71.50;98772.90;661702;1277;138943;-82
2022/09/15 17:03:19;;;;;;;5.60;4.00;;;;;;;17.14;72.43;98781.65;664121;1276;138243;-83
2022/09/15 17:18:24;;;;;;;18.40;9.00;;;;;;;16.90;73.65;98789.57;662220;1278;139269;-84
2022/09/15 17:33:31;;;;;;;13.50;7.40;;;;;;;16.69;73.79;98785.90;661133;1277;139824;-83
2022/09/15 17:48:37;;;;;;;245.40;87.10;;;;;;;16.54;73.72;98790.73;662488;1277;139225;-83
2022/09/15 18:03:44;;;;;;;27.00;12.70;;;;;;;16.34;73.99;98792.61;662442;1278;141340;-83
2022/09/15 18:18:50;;;;;;;44.70;15.30;;;;;;;15.95;75.04;98796.15;662292;1278;139252;-82
2022/09/15 18:33:55;;;;;;;8.60;5.00;;;;;;;15.60;75.74;98800.69;664290;1277;139691;-82
2022/09/15 18:49:01;;;;;;;6.40;3.40;;;;;;;15.28;77.11;98802.33;661939;1274;139280;-82
2022/09/15 19:04:05;;;;;;;12.00;3.80;;;;;;;15.00;77.65;98804.46;665294;1277;139810;-83
2022/09/15 19:19:10;;;;;;;39.40;23.80;;;;;;;14.66;78.99;98805.77;665044;1277;139446;-83
2022/09/15 19:34:14;;;;;;;37.30;21.00;;;;;;;14.25;81.20;98809.20;665593;1277;140407;-82
2022/09/15 19:49:18;;;;;;;15.60;5.70;;;;;;;13.98;82.87;98812.45;661397;1277;140491;-83
2022/09/15 20:04:23;;;;;;;8.80;4.20;;;;;;;13.73;85.14;98825.08;659244;1277;139804;-83
2022/09/15 20:19:28;;;;;;;8.40;4.70;;;;;;;13.49;86.65;98825.37;661066;1277;139776;-83
2022/09/15 20:34:32;;;;;;;8.60;3.20;;;;;;;13.31;88.85;98824.66;660605;1276;139927;-83
2022/09/15 20:49:36;;;;;;;7.40;3.50;;;;;;;13.22;90.45;98822.67;659643;1277;139067;-83
2022/09/15 21:04:41;;;;;;;10.70;3.70;;;;;;;13.08;91.73;98823.41;660721;1277;140062;-83
2022/09/15 21:19:45;;;;;;;7.50;2.90;;;;;;;13.01;92.62;98821.26;660634;1277;141363;-84
2022/09/15 21:34:49;;;;;;;4.70;2.10;;;;;;;13.01;92.49;98815.70;661283;1277;139927;-83
2022/09/15 21:49:52;;;;;;;5.00;2.40;;;;;;;13.09;92.39;98811.94;660973;1277;139108;-83
2022/09/15 22:04:55;;;;;;;5.10;2.20;;;;;;;13.18;92.13;98798.00;659265;1277;138915;-83
2022/09/15 22:20:00;;;;;;;6.70;3.00;;;;;;;13.20;92.04;98793.61;661831;1277;139909;-84
2022/09/15 22:35:05;;;;;;;7.20;2.90;;;;;;;13.29;91.84;98799.33;663218;1277;138917;-83
2022/09/15 22:50:08;;;;;;;8.80;4.40;;;;;;;13.22;93.29;98791.24;662022;1277;138477;-83
2022/09/15 23:05:11;;;;;;;8.90;4.20;;;;;;;13.16;96.98;98789.52;663091;1277;139263;-83
2022/09/15 23:20:15;;;;;;;5.30;2.80;;;;;;;13.29;98.15;98795.23;662406;1277;139760;-85
2022/09/15 23:35:18;;;;;;;7.80;3.20;;;;;;;13.25;98.87;98804.52;659980;1277;139568;-83
2022/09/15 23:50:21;;;;;;;9.40;3.50;;;;;;;13.15;99.33;98811.52;660322;1277;1491868;-83
